Time;durP1;ratioP1;P1;durP2;ratioP2;P2;SDS_P1;SDS_P2;PMS_P1;PMS_P2;Temp;Humidity;BMP_temperature;BMP_pressure;BME280_temperature;BME280_humidity;BME280_pressure;Samples;Min_cycle;Max_cycle;Signal;HPM_P1;HPM_P2
2022/05/30 00:02:16;;;;;;;2.10;2.00;;;13.70;42.60;;;;;;20513;6843;308570;-89
2022/05/30 00:04:41;;;;;;;3.80;2.00;;;13.80;42.00;;;;;;20536;6843;304743;-88
2022/05/30 00:07:07;;;;;;;1.92;1.83;;;13.90;41.80;;;;;;20751;6843;120971;-88
2022/05/30 00:09:33;;;;;;;2.30;2.20;;;13.70;42.50;;;;;;20724;6843;117843;-89
2022/05/30 00:11:58;;;;;;;1.90;1.80;;;13.40;43.10;;;;;;20740;6843;117368;-88
2022/05/30 00:14:23;;;;;;;2.87;1.85;;;13.00;43.60;;;;;;20487;6843;280467;-88
2022/05/30 00:16:49;;;;;;;2.03;1.92;;;13.20;43.40;;;;;;20557;6843;308480;-89
2022/05/30 00:19:16;;;;;;;9.00;2.10;;;13.50;42.90;;;;;;20613;6843;289161;-88
2022/05/30 00:21:42;;;;;;;1.90;1.80;;;13.90;42.40;;;;;;20603;6843;338882;-88
2022/05/30 00:24:07;;;;;;;2.20;1.87;;;14.10;41.80;;;;;;20790;6841;117198;-88
2022/05/30 00:26:33;;;;;;;1.90;1.80;;;13.90;42.20;;;;;;20753;6842;117259;-88
2022/05/30 00:28:58;;;;;;;2.13;1.90;;;13.50;42.90;;;;;;20798;6842;117597;-88
2022/05/30 00:31:24;;;;;;;2.00;1.90;;;12.80;44.00;;;;;;20822;6842;116248;-89
2022/05/30 00:33:52;;;;;;;2.30;2.10;;;12.70;43.80;;;;;;20621;6842;280009;-87
2022/05/30 00:36:17;;;;;;;1.77;1.67;;;12.90;43.60;;;;;;20591;6842;277055;-88
2022/05/30 00:38:43;;;;;;;2.20;1.90;;;13.30;43.10;;;;;;20834;6842;116361;-88
2022/05/30 00:41:08;;;;;;;2.25;2.05;;;13.20;43.30;;;;;;20791;6842;117162;-88
2022/05/30 00:43:34;;;;;;;2.17;2.00;;;13.00;43.70;;;;;;20546;6843;281962;-88
2022/05/30 00:45:59;;;;;;;2.65;1.90;;;13.10;42.90;;;;;;20575;6843;308283;-88
2022/05/30 00:48:25;;;;;;;1.60;1.50;;;13.40;42.40;;;;;;20798;6843;117296;-88
2022/05/30 00:50:50;;;;;;;1.60;1.50;;;13.30;42.80;;;;;;20654;6843;121376;-88
2022/05/30 00:53:16;;;;;;;2.00;1.90;;;13.00;43.30;;;;;;20743;6843;117153;-88
2022/05/30 00:55:43;;;;;;;1.85;1.75;;;12.70;43.70;;;;;;20757;6843;118299;-88
2022/05/30 00:58:07;;;;;;;1.63;1.60;;;12.50;44.10;;;;;;20742;6843;119168;-88
2022/05/30 01:00:33;;;;;;;2.20;2.10;;;12.30;44.50;;;;;;20516;6843;338951;-88
2022/05/30 01:08:29;;;;;;;2.80;2.60;;;12.60;43.40;;;;;;20538;6843;318916;-89
2022/05/30 01:10:55;;;;;;;1.90;1.80;;;12.90;42.70;;;;;;20535;6843;307691;-88
2022/05/30 01:13:20;;;;;;;1.70;1.60;;;13.10;42.80;;;;;;20753;6843;118137;-89
2022/05/30 01:15:46;;;;;;;2.90;2.10;;;13.00;43.10;;;;;;20755;6843;117167;-88
2022/05/30 01:18:23;;;;;;;2.10;2.00;;;12.70;43.70;;;;;;20519;6843;337486;-89
2022/05/30 01:21:15;;;;;;;2.37;2.20;;;12.70;43.10;;;;;;20515;6843;278695;-88
2022/05/30 01:23:46;;;;;;;2.00;1.90;;;13.00;42.60;;;;;;20536;6843;307603;-89
2022/05/30 01:26:12;;;;;;;1.63;1.53;;;13.10;42.10;;;;;;20398;6843;119583;-89
2022/05/30 01:29:07;;;;;;;1.70;1.60;;;12.90;42.70;;;;;;20474;6843;290327;-88
2022/05/30 01:31:32;;;;;;;1.70;1.60;;;12.90;42.50;;;;;;20541;6843;341175;-89
2022/05/30 01:33:58;;;;;;;2.23;1.63;;;13.10;42.40;;;;;;20752;6843;117269;-89
2022/05/30 01:36:25;;;;;;;1.55;1.45;;;13.00;42.80;;;;;;20747;6841;121157;-89
2022/05/30 01:38:50;;;;;;;1.53;1.43;;;12.70;43.30;;;;;;20763;6842;117939;-89
2022/05/30 01:41:16;;;;;;;1.80;1.70;;;12.40;44.00;;;;;;20753;6842;117312;-89
2022/05/30 01:43:41;;;;;;;3.40;1.90;;;12.20;44.50;;;;;;20752;6842;117158;-89
2022/05/30 01:46:08;;;;;;;2.15;1.50;;;11.90;45.10;;;;;;20759;6842;117752;-89
2022/05/30 01:48:33;;;;;;;1.80;1.70;;;11.90;45.10;;;;;;20717;6842;119838;-89
2022/05/30 01:51:00;;;;;;;2.43;1.70;;;11.70;45.50;;;;;;20755;6842;120235;-89
2022/05/30 01:53:25;;;;;;;2.47;1.90;;;11.70;45.50;;;;;;20550;6842;313420;-89
2022/05/30 01:55:51;;;;;;;2.30;2.20;;;12.10;45.00;;;;;;20705;6843;117823;-89
2022/05/30 01:58:17;;;;;;;2.33;1.90;;;12.00;44.90;;;;;;20731;6843;119389;-89
2022/05/30 02:00:43;;;;;;;2.00;1.90;;;11.90;45.00;;;;;;20754;6843;117366;-89
2022/05/30 02:03:08;;;;;;;2.10;2.00;;;11.70;45.40;;;;;;20543;6843;310499;-89
2022/05/30 02:05:34;;;;;;;2.30;2.10;;;12.30;43.50;;;;;;20545;6843;278406;-89
2022/05/30 02:08:01;;;;;;;2.13;2.00;;;12.30;43.40;;;;;;20548;6842;278535;-89
2022/05/30 02:10:26;;;;;;;2.20;2.07;;;12.60;43.10;;;;;;20512;6843;308568;-89
2022/05/30 02:12:51;;;;;;;1.90;1.80;;;12.80;42.70;;;;;;20755;6843;117497;-89
2022/05/30 02:15:18;;;;;;;2.00;1.90;;;12.60;43.10;;;;;;20540;6843;281012;-89
2022/05/30 02:17:43;;;;;;;2.03;1.93;;;12.70;43.00;;;;;;20759;6843;121516;-89
2022/05/30 02:20:12;;;;;;;2.00;1.90;;;12.70;42.90;;;;;;20541;6843;297021;-89
2022/05/30 02:22:36;;;;;;;3.47;2.20;;;12.60;42.70;;;;;;20606;6843;119240;-89
2022/05/30 02:25:01;;;;;;;2.10;2.00;;;12.50;43.10;;;;;;20536;6843;308059;-89
2022/05/30 02:27:26;;;;;;;2.07;1.90;;;12.60;42.80;;;;;;20753;6843;117373;-89
2022/05/30 02:29:52;;;;;;;1.90;1.90;;;12.50;43.20;;;;;;20760;6843;117380;-89
2022/05/30 02:32:19;;;;;;;3.77;1.80;;;12.30;43.70;;;;;;20725;6843;118599;-89
2022/05/30 02:37:31;;;;;;;2.13;2.03;;;11.80;44.50;;;;;;20747;6843;118378;-89
2022/05/30 02:39:56;;;;;;;3.40;2.30;;;11.60;44.60;;;;;;20752;6843;117334;-89
2022/05/30 02:42:21;;;;;;;2.53;2.33;;;11.40;45.00;;;;;;20727;6843;117906;-88
2022/05/30 02:44:49;;;;;;;2.37;2.28;;;11.10;46.00;;;;;;20758;6843;117407;-89
2022/05/30 02:47:13;;;;;;;2.63;2.53;;;11.10;45.50;;;;;;20542;6841;308171;-90
2022/05/30 02:49:40;;;;;;;2.73;2.53;;;11.50;44.90;;;;;;20764;6842;117808;-89
2022/05/30 02:52:05;;;;;;;2.40;2.30;;;11.40;44.80;;;;;;20750;6842;116832;-89
2022/05/30 02:54:31;;;;;;;2.28;2.12;;;11.30;45.10;;;;;;20740;6842;117977;-88
2022/05/30 02:56:56;;;;;;;2.43;2.33;;;11.10;45.40;;;;;;20537;6842;308548;-88
2022/05/30 02:59:22;;;;;;;3.40;2.40;;;11.40;44.70;;;;;;20535;6842;308342;-88
2022/05/30 03:01:47;;;;;;;2.37;2.27;;;11.80;44.10;;;;;;20743;6842;117409;-88
2022/05/30 03:04:13;;;;;;;2.20;2.08;;;11.80;44.30;;;;;;20527;6842;278388;-88
2022/05/30 03:06:39;;;;;;;2.10;2.00;;;12.00;43.70;;;;;;20758;6843;117546;-88
2022/05/30 03:09:05;;;;;;;2.20;2.10;;;11.70;44.20;;;;;;20759;6843;121635;-88
2022/05/30 03:11:30;;;;;;;2.93;2.10;;;11.70;44.20;;;;;;20747;6843;117862;-90
2022/05/30 03:13:56;;;;;;;3.37;2.20;;;11.50;44.60;;;;;;20761;6843;117169;-88
2022/05/30 03:16:22;;;;;;;2.10;2.00;;;11.30;45.20;;;;;;20527;6843;336172;-88
2022/05/30 03:18:48;;;;;;;2.10;2.00;;;11.50;44.00;;;;;;20757;6843;118072;-88
2022/05/30 03:21:13;;;;;;;2.00;1.90;;;11.50;44.00;;;;;;20743;6843;117660;-88
2022/05/30 03:23:39;;;;;;;3.87;1.87;;;11.30;44.20;;;;;;20757;6843;118798;-88
2022/05/30 03:26:06;;;;;;;1.92;1.83;;;11.10;44.60;;;;;;20542;6843;281633;-88
2022/05/30 03:28:31;;;;;;;2.10;1.90;;;11.40;43.60;;;;;;20524;6843;278525;-89
2022/05/30 03:30:58;;;;;;;2.00;1.90;;;12.10;42.00;;;;;;20536;6843;308547;-88
2022/05/30 03:33:24;;;;;;;1.70;1.60;;;12.10;42.00;;;;;;20743;6843;119044;-88
2022/05/30 03:35:50;;;;;;;1.83;1.73;;;11.90;42.50;;;;;;20516;6843;280547;-88
2022/05/30 03:38:15;;;;;;;1.65;1.55;;;12.00;42.00;;;;;;20732;6843;118466;-89
2022/05/30 03:40:41;;;;;;;2.05;1.95;;;11.90;42.50;;;;;;20726;6843;117368;-88
2022/05/30 03:43:09;;;;;;;3.07;1.90;;;11.60;43.00;;;;;;20539;6843;280345;-88
2022/05/30 03:45:37;;;;;;;2.27;1.90;;;12.10;41.80;;;;;;20523;6843;308614;-88
2022/05/30 03:48:03;;;;;;;6.97;1.90;;;12.10;41.80;;;;;;20754;6843;117176;-82
2022/05/30 03:50:29;;;;;;;1.80;1.70;;;12.00;42.10;;;;;;20548;6843;436086;-82
2022/05/30 03:52:55;;;;;;;1.87;1.77;;;12.20;41.30;;;;;;20589;6843;336104;-82
2022/05/30 03:55:22;;;;;;;2.00;1.90;;;12.20;41.30;;;;;;20591;6843;289888;-82
2022/05/30 03:57:48;;;;;;;2.00;1.77;;;12.30;41.60;;;;;;20790;6841;117633;-83
2022/05/30 04:00:14;;;;;;;2.80;1.80;;;12.20;41.50;;;;;;20568;6842;308071;-84
2022/05/30 04:02:40;;;;;;;1.80;1.70;;;12.20;41.30;;;;;;20577;6842;293276;-83
2022/05/30 04:05:05;;;;;;;2.05;1.95;;;12.40;41.00;;;;;;20604;6842;277466;-83
2022/05/30 04:07:31;;;;;;;2.00;1.90;;;12.60;40.80;;;;;;20592;6842;307984;-83
2022/05/30 04:09:56;;;;;;;1.70;1.60;;;12.70;40.40;;;;;;20594;6842;277786;-82
2022/05/30 04:12:22;;;;;;;2.08;1.98;;;12.80;40.20;;;;;;20570;6842;307704;-82
2022/05/30 04:14:54;;;;;;;2.00;1.90;;;12.80;40.00;;;;;;20589;6842;306543;-83
2022/05/30 04:17:20;;;;;;;2.00;1.80;;;12.70;40.10;;;;;;20553;6842;277521;-83
2022/05/30 04:19:46;;;;;;;1.77;1.67;;;12.70;40.20;;;;;;20598;6843;304249;-85
2022/05/30 04:22:12;;;;;;;2.97;1.60;;;12.80;40.40;;;;;;20569;6843;280942;-84
2022/05/30 04:24:38;;;;;;;2.10;1.73;;;12.80;40.10;;;;;;20793;6843;117646;-84
2022/05/30 04:27:04;;;;;;;1.70;1.60;;;12.50;40.80;;;;;;20800;6843;117226;-84
2022/05/30 04:29:29;;;;;;;14.77;1.77;;;12.20;41.70;;;;;;20806;6843;117268;-85
2022/05/30 04:31:55;;;;;;;77.33;3.47;;;12.00;42.50;;;;;;20779;6843;118001;-84
2022/05/30 04:34:21;;;;;;;16.47;2.20;;;12.10;42.40;;;;;;20543;6843;307698;-85
2022/05/30 04:36:46;;;;;;;91.03;4.07;;;12.00;42.30;;;;;;20780;6843;118183;-85
2022/05/30 04:39:12;;;;;;;17.45;2.20;;;12.10;42.40;;;;;;20562;6843;308564;-87
2022/05/30 04:41:38;;;;;;;8.77;1.80;;;12.30;42.10;;;;;;20810;6843;117402;-84
2022/05/30 04:44:03;;;;;;;5.40;1.73;;;12.20;42.30;;;;;;20587;6842;333819;-84
2022/05/30 04:46:29;;;;;;;5.20;1.70;;;12.40;41.80;;;;;;20797;6843;117156;-84
2022/05/30 04:48:54;;;;;;;1.97;1.87;;;12.40;42.20;;;;;;20810;6843;117301;-85
2022/05/30 04:51:21;;;;;;;2.00;1.90;;;12.20;42.70;;;;;;20812;6843;117644;-83
2022/05/30 04:53:47;;;;;;;2.20;2.10;;;12.00;43.10;;;;;;20818;6843;117152;-84
2022/05/30 04:56:13;;;;;;;1.90;1.80;;;11.80;43.30;;;;;;20800;6843;118896;-85
2022/05/30 04:58:38;;;;;;;1.80;1.70;;;11.70;43.60;;;;;;20813;6843;116636;-85
2022/05/30 05:01:04;;;;;;;2.30;2.20;;;11.60;43.90;;;;;;20587;6843;322132;-84
2022/05/30 05:03:29;;;;;;;2.10;2.00;;;11.90;43.30;;;;;;20806;6843;117213;-86
2022/05/30 05:06:02;;;;;;;2.30;2.20;;;11.90;43.40;;;;;;20564;6843;340923;-85
2022/05/30 05:08:47;;;;;;;1.80;1.70;;;12.10;42.90;;;;;;20736;6843;144385;-86
2022/05/30 05:11:12;;;;;;;2.17;2.07;;;12.10;43.00;;;;;;20755;6841;117231;-86
2022/05/30 05:13:38;;;;;;;2.40;2.30;;;11.90;43.50;;;;;;20552;6842;308029;-87
2022/05/30 05:16:04;;;;;;;3.03;2.85;;;12.10;43.10;;;;;;20557;6842;308213;-88
2022/05/30 05:18:29;;;;;;;2.60;2.30;;;12.50;42.50;;;;;;20526;6842;302277;-85
2022/05/30 05:20:55;;;;;;;2.37;2.27;;;12.80;42.20;;;;;;20771;6842;117194;-86
2022/05/30 05:23:21;;;;;;;2.28;2.17;;;12.60;42.50;;;;;;20748;6842;117168;-86
2022/05/30 05:25:47;;;;;;;3.43;1.87;;;12.40;43.30;;;;;;20747;6842;119373;-87
2022/05/30 05:28:13;;;;;;;2.50;2.30;;;12.20;43.80;;;;;;20547;6842;280941;-87
2022/05/30 05:30:40;;;;;;;2.43;2.30;;;12.40;43.40;;;;;;20553;6843;306628;-85
2022/05/30 05:33:06;;;;;;;2.13;2.03;;;12.70;43.10;;;;;;20763;6843;117249;-86
2022/05/30 05:35:31;;;;;;;2.37;2.17;;;12.70;43.10;;;;;;20776;6843;117253;-85
2022/05/30 05:37:57;;;;;;;2.60;2.40;;;12.50;43.60;;;;;;20566;6843;279399;-86
2022/05/30 05:40:23;;;;;;;2.20;2.10;;;12.70;43.30;;;;;;20760;6842;127435;-88
2022/05/30 05:42:50;;;;;;;2.20;2.10;;;12.70;43.60;;;;;;20798;6843;117901;-86
2022/05/30 05:45:16;;;;;;;2.20;2.10;;;12.50;44.10;;;;;;20774;6843;117447;-85
2022/05/30 05:47:43;;;;;;;2.45;2.35;;;12.30;44.40;;;;;;20561;6843;322631;-87
2022/05/30 05:50:10;;;;;;;2.27;2.10;;;12.60;44.20;;;;;;20802;6843;119823;-84
2022/05/30 05:52:35;;;;;;;2.25;2.15;;;12.70;44.20;;;;;;20587;6842;299280;-82
2022/05/30 05:55:01;;;;;;;2.33;2.23;;;13.00;43.60;;;;;;20833;6843;117338;-86
2022/05/30 05:57:26;;;;;;;2.50;2.40;;;13.00;43.80;;;;;;20803;6843;122698;-83
2022/05/30 05:59:52;;;;;;;2.65;2.55;;;12.90;44.30;;;;;;20794;6843;117206;-83
2022/05/30 06:02:18;;;;;;;2.70;2.60;;;13.10;44.00;;;;;;20554;6843;279015;-82
2022/05/30 06:04:44;;;;;;;2.80;2.60;;;13.10;44.00;;;;;;20798;6843;116386;-83
2022/05/30 06:07:09;;;;;;;2.55;2.35;;;13.20;44.10;;;;;;20795;6843;117246;-83
2022/05/30 06:09:35;;;;;;;2.13;2.03;;;13.20;44.50;;;;;;20799;6843;116426;-83
2022/05/30 06:12:00;;;;;;;2.37;2.28;;;13.20;44.90;;;;;;20792;6843;117189;-84
2022/05/30 06:14:27;;;;;;;2.50;2.40;;;13.70;46.10;;;;;;20785;6843;119020;-81
2022/05/30 06:16:53;;;;;;;3.10;2.90;;;13.70;46.00;;;;;;20591;6843;306423;-83
2022/05/30 06:19:19;;;;;;;2.90;2.70;;;14.40;43.10;;;;;;20797;6843;118912;-83
2022/05/30 06:21:44;;;;;;;2.60;2.50;;;15.00;43.70;;;;;;20596;6841;279127;-83
2022/05/30 06:24:10;;;;;;;2.50;2.40;;;16.00;41.30;;;;;;20568;6842;277674;-84
2022/05/30 06:26:36;;;;;;;2.80;2.60;;;18.10;37.60;;;;;;20594;6842;307010;-83
2022/05/30 06:29:03;;;;;;;2.70;2.50;;;18.10;37.60;;;;;;20603;6842;287683;-83
2022/05/30 06:31:30;;;;;;;2.65;2.45;;;19.10;36.10;;;;;;20575;6842;310719;-82
2022/05/30 06:34:02;;;;;;;2.57;2.37;;;19.90;34.70;;;;;;20788;6842;117205;-88
2022/05/30 06:36:27;;;;;;;2.50;2.30;;;20.10;36.40;;;;;;20753;6842;150138;-84
2022/05/30 06:38:53;;;;;;;2.47;2.37;;;20.20;37.30;;;;;;20785;6842;117358;-84
2022/05/30 06:41:21;;;;;;;2.60;2.40;;;20.20;37.70;;;;;;20553;6843;308550;-86
2022/05/30 06:43:47;;;;;;;2.65;2.50;;;20.80;33.90;;;;;;20458;6843;313275;-89
2022/05/30 06:46:13;;;;;;;2.30;2.20;;;21.50;32.50;;;;;;20745;6843;119816;-84
2022/05/30 06:48:38;;;;;;;2.20;2.10;;;21.70;34.10;;;;;;20543;6843;309828;-86
2022/05/30 06:51:04;;;;;;;2.33;2.20;;;22.70;31.20;;;;;;20557;6843;279052;-85
2022/05/30 06:53:30;;;;;;;2.23;2.13;;;22.60;31.10;;;;;;20548;6843;306332;-86
2022/05/30 06:55:55;;;;;;;2.63;2.43;;;23.10;30.20;;;;;;20553;6843;308527;-86
2022/05/30 06:58:21;;;;;;;1.93;1.83;;;23.40;30.20;;;;;;20743;6843;119904;-84
2022/05/30 07:00:47;;;;;;;2.40;2.20;;;23.00;33.00;;;;;;20762;6843;117586;-86
2022/05/30 07:03:13;;;;;;;2.03;1.92;;;22.90;32.90;;;;;;20553;6843;336544;-86
2022/05/30 07:05:38;;;;;;;1.80;1.70;;;23.10;30.40;;;;;;20775;6843;117657;-83
2022/05/30 07:08:06;;;;;;;2.12;2.03;;;23.00;32.20;;;;;;20598;6843;309631;-83
2022/05/30 07:10:31;;;;;;;2.10;2.00;;;23.10;30.60;;;;;;20548;6843;307637;-82
2022/05/30 07:12:57;;;;;;;2.00;1.90;;;23.40;30.20;;;;;;20799;6843;117406;-85
2022/05/30 07:15:26;;;;;;;2.40;2.08;;;23.20;31.90;;;;;;20597;6843;277089;-87
2022/05/30 07:17:51;;;;;;;2.07;1.90;;;23.20;31.20;;;;;;20595;6843;279076;-87
2022/05/30 07:20:18;;;;;;;1.93;1.57;;;23.00;32.10;;;;;;20794;6843;119943;-87
2022/05/30 07:22:43;;;;;;;2.40;2.20;;;23.00;32.00;;;;;;20541;6843;309184;-86
2022/05/30 07:25:09;;;;;;;1.80;1.70;;;22.80;30.80;;;;;;20823;6843;120281;-85
2022/05/30 07:27:34;;;;;;;2.00;1.90;;;22.60;32.50;;;;;;20610;6843;277618;-86
2022/05/30 07:30:00;;;;;;;2.47;2.10;;;22.50;31.60;;;;;;20615;6843;278370;-88
2022/05/30 07:32:25;;;;;;;2.27;2.00;;;22.50;32.30;;;;;;20787;6843;117252;-85
2022/05/30 07:34:51;;;;;;;1.93;1.83;;;22.30;33.00;;;;;;20831;6841;121749;-84
2022/05/30 07:37:17;;;;;;;2.00;1.73;;;21.90;33.40;;;;;;20835;6842;116333;-87
2022/05/30 07:39:42;;;;;;;5.00;2.20;;;21.50;34.30;;;;;;20810;6842;118341;-87
2022/05/30 07:42:10;;;;;;;2.15;1.95;;;21.20;35.20;;;;;;20816;6842;117466;-86
2022/05/30 07:44:33;;;;;;;2.03;1.93;;;21.10;35.40;;;;;;20792;6842;122611;-85
2022/05/30 07:47:01;;;;;;;2.10;1.90;;;20.90;35.80;;;;;;20831;6842;117371;-87
2022/05/30 07:49:27;;;;;;;2.20;2.00;;;20.80;36.20;;;;;;20575;6842;278043;-85
2022/05/30 07:51:53;;;;;;;2.57;1.87;;;21.10;33.80;;;;;;20767;6842;116363;-86
2022/05/30 07:54:19;;;;;;;2.27;2.00;;;21.20;35.00;;;;;;20751;6843;118170;-84
2022/05/30 07:56:45;;;;;;;2.37;1.90;;;21.20;35.00;;;;;;20753;6842;117329;-84
2022/05/30 07:59:10;;;;;;;2.30;2.07;;;21.00;35.30;;;;;;20772;6843;117322;-85
2022/05/30 08:01:35;;;;;;;2.13;1.97;;;21.00;35.30;;;;;;20755;6843;120927;-87
2022/05/30 08:04:01;;;;;;;2.50;2.30;;;20.90;35.00;;;;;;20551;6843;292628;-85
2022/05/30 08:06:26;;;;;;;2.70;1.97;;;21.20;32.70;;;;;;20516;6843;342677;-85
2022/05/30 08:08:53;;;;;;;2.20;2.00;;;21.80;31.40;;;;;;20536;6843;308183;-88
2022/05/30 08:11:18;;;;;;;1.43;1.33;;;21.80;30.70;;;;;;20718;6843;117168;-86
2022/05/30 08:13:45;;;;;;;2.37;1.60;;;21.80;31.90;;;;;;20745;6843;117364;-87
2022/05/30 08:16:09;;;;;;;2.00;1.83;;;21.50;32.30;;;;;;20542;6843;308481;-86
2022/05/30 08:18:35;;;;;;;1.83;1.73;;;21.60;30.30;;;;;;20747;6843;120395;-84
2022/05/30 08:21:00;;;;;;;1.83;1.63;;;21.50;31.40;;;;;;20761;6843;117114;-86
2022/05/30 08:23:27;;;;;;;2.12;1.92;;;21.30;32.10;;;;;;20547;6843;307290;-85
2022/05/30 08:25:53;;;;;;;2.70;1.50;;;21.40;29.50;;;;;;20751;6843;117310;-84
2022/05/30 08:28:19;;;;;;;2.10;1.57;;;21.30;30.80;;;;;;20717;6843;119592;-87
2022/05/30 08:30:46;;;;;;;3.37;1.70;;;21.30;30.10;;;;;;20555;6843;308450;-84
2022/05/30 08:33:12;;;;;;;1.67;1.53;;;21.30;31.30;;;;;;20759;6843;119559;-85
2022/05/30 08:35:38;;;;;;;1.50;1.40;;;21.30;30.70;;;;;;20571;6843;306641;-84
2022/05/30 08:38:04;;;;;;;1.77;1.50;;;21.50;30.10;;;;;;20604;6843;279533;-85
2022/05/30 08:43:15;;;;;;;1.40;1.30;;;21.80;29.90;;;;;;20562;6843;281471;-84
2022/05/30 08:45:41;;;;;;;2.47;1.30;;;21.90;29.00;;;;;;20764;6841;119869;-86
2022/05/30 08:48:11;;;;;;;1.70;1.43;;;21.90;29.00;;;;;;20755;6842;117243;-85
2022/05/30 08:50:44;;;;;;;2.77;2.23;;;21.80;29.60;;;;;;20755;6842;119521;-84
2022/05/30 08:53:35;;;;;;;1.63;1.53;;;21.60;29.70;;;;;;20750;6842;119593;-84
2022/05/30 08:56:26;;;;;;;1.47;1.37;;;21.50;30.00;;;;;;20547;6842;122812;-85
2022/05/30 08:59:05;;;;;;;1.20;1.10;;;21.30;30.40;;;;;;20759;6842;117602;-85
2022/05/30 09:01:41;;;;;;;2.80;1.30;;;21.10;30.00;;;;;;19995;6842;119927;-85
2022/05/30 09:04:16;;;;;;;3.00;1.60;;;21.10;30.70;;;;;;20547;6842;308156;-85
2022/05/30 09:06:38;;;;;;;2.10;1.50;;;21.50;29.90;;;;;;20541;6843;305732;-84
2022/05/30 09:09:22;;;;;;;2.63;1.70;;;22.00;28.90;;;;;;20754;6843;119573;-85
2022/05/30 09:11:46;;;;;;;1.43;1.33;;;22.20;29.80;;;;;;20545;6843;289122;-85
2022/05/30 09:14:12;;;;;;;1.67;1.50;;;22.30;27.90;;;;;;20534;6843;308190;-84
2022/05/30 09:16:37;;;;;;;2.40;1.50;;;22.60;27.60;;;;;;20556;6843;308008;-85
2022/05/30 09:19:03;;;;;;;1.70;1.30;;;22.90;26.80;;;;;;20761;6843;119821;-85
2022/05/30 09:21:29;;;;;;;1.52;1.35;;;22.70;27.80;;;;;;20761;6843;117124;-84
2022/05/30 09:23:54;;;;;;;1.52;1.30;;;22.50;28.60;;;;;;20547;6842;307582;-84
2022/05/30 09:26:24;;;;;;;1.48;1.15;;;22.50;28.00;;;;;;20758;6843;118300;-84
2022/05/30 09:28:50;;;;;;;2.30;1.50;;;22.50;28.00;;;;;;20560;6843;308552;-85
2022/05/30 09:31:22;;;;;;;1.77;1.10;;;22.70;27.00;;;;;;20550;6843;341656;-86
2022/05/30 09:33:47;;;;;;;0.73;0.73;;;22.90;25.70;;;;;;20763;6843;117499;-84
2022/05/30 09:36:34;;;;;;;0.87;0.70;;;22.90;26.80;;;;;;20745;6843;122028;-85
2022/05/30 09:39:01;;;;;;;0.93;0.70;;;22.80;27.90;;;;;;20521;6843;337931;-85
2022/05/30 09:41:27;;;;;;;1.00;0.90;;;22.90;25.30;;;;;;20531;6843;307159;-85
2022/05/30 09:43:56;;;;;;;1.20;1.00;;;23.20;25.40;;;;;;20466;6843;278729;-84
2022/05/30 09:46:41;;;;;;;1.40;0.90;;;23.40;24.00;;;;;;20734;6843;117402;-85
2022/05/30 09:49:07;;;;;;;1.40;1.30;;;23.30;25.90;;;;;;20756;6843;117471;-86
2022/05/30 09:51:36;;;;;;;1.50;1.20;;;22.90;27.00;;;;;;20548;6843;307168;-83
2022/05/30 09:54:02;;;;;;;1.17;0.93;;;22.90;26.50;;;;;;20752;6843;117277;-86
2022/05/30 09:56:28;;;;;;;1.27;1.03;;;22.90;26.50;;;;;;20725;6841;120030;-87
2022/05/30 09:59:03;;;;;;;0.95;0.90;;;22.80;27.30;;;;;;20745;6842;118361;-89
2022/05/30 10:01:30;;;;;;;1.13;1.03;;;22.60;27.60;;;;;;20527;6842;308006;-87
2022/05/30 10:03:59;;;;;;;1.42;1.08;;;22.80;25.40;;;;;;20753;6842;117222;-87
2022/05/30 10:06:21;;;;;;;1.10;0.90;;;22.90;26.80;;;;;;20515;6842;278862;-86
2022/05/30 10:08:48;;;;;;;1.50;1.10;;;23.20;24.60;;;;;;20545;6842;281642;-86
2022/05/30 10:11:32;;;;;;;1.70;0.90;;;23.20;24.60;;;;;;20731;6842;117775;-85
2022/05/30 10:13:55;;;;;;;2.13;1.10;;;23.10;25.20;;;;;;20750;6842;117628;-85
2022/05/30 10:16:21;;;;;;;1.13;1.00;;;22.90;26.10;;;;;;20518;6843;321758;-86
2022/05/30 10:18:55;;;;;;;2.08;1.10;;;23.00;25.10;;;;;;20503;6843;309163;-88
2022/05/30 10:21:35;;;;;;;0.83;0.77;;;23.40;25.50;;;;;;20732;6843;120322;-87
2022/05/30 10:30:08;;;;;;;0.80;0.80;;;23.00;25.20;;;;;;20539;6842;278079;-87
2022/05/30 10:33:01;;;;;;;1.20;1.10;;;23.30;25.00;;;;;;20488;6843;337161;-88
2022/05/30 10:35:42;;;;;;;0.70;0.70;;;23.50;24.80;;;;;;20744;6843;117218;-86
2022/05/30 10:38:17;;;;;;;1.27;1.03;;;23.40;26.30;;;;;;20746;6843;118051;-86
2022/05/30 10:41:22;;;;;;;2.70;1.10;;;23.30;26.80;;;;;;20513;6843;281475;-86
2022/05/30 10:44:09;;;;;;;1.20;1.10;;;23.40;24.00;;;;;;20542;6843;309617;-87
2022/05/30 10:46:45;;;;;;;0.80;0.80;;;23.80;26.50;;;;;;20714;6843;118053;-87
2022/05/30 10:49:14;;;;;;;1.87;0.83;;;23.90;26.40;;;;;;20508;6843;278252;-87
2022/05/30 10:51:39;;;;;;;1.30;1.20;;;23.80;26.30;;;;;;20523;6843;307908;-87
2022/05/30 10:54:08;;;;;;;1.45;1.10;;;24.10;24.10;;;;;;20532;6843;307565;-87
2022/05/30 10:56:41;;;;;;;1.30;1.30;;;24.20;24.40;;;;;;20751;6843;119028;-86
2022/05/30 10:59:27;;;;;;;1.27;1.17;;;24.00;25.90;;;;;;20727;6843;117893;-86
2022/05/30 11:01:56;;;;;;;1.30;1.10;;;23.80;27.00;;;;;;20749;6843;119258;-88
2022/05/30 11:04:34;;;;;;;1.10;1.00;;;23.70;27.00;;;;;;20484;6842;301789;-85
2022/05/30 11:07:03;;;;;;;2.55;1.10;;;23.80;24.20;;;;;;20531;6843;339234;-85
2022/05/30 11:09:28;;;;;;;0.90;0.90;;;24.00;24.70;;;;;;20697;6842;117467;-86
2022/05/30 11:11:54;;;;;;;1.10;0.80;;;24.00;25.90;;;;;;20729;6842;117121;-85
2022/05/30 11:14:23;;;;;;;2.53;1.10;;;23.90;26.70;;;;;;20707;6842;117536;-86
2022/05/30 11:16:48;;;;;;;1.33;1.10;;;23.80;26.70;;;;;;20225;6842;307908;-84
2022/05/30 11:19:17;;;;;;;1.10;1.00;;;23.90;24.20;;;;;;20526;6842;310167;-87
2022/05/30 11:21:42;;;;;;;1.45;1.10;;;24.00;23.30;;;;;;20527;6842;311866;-86
2022/05/30 11:24:09;;;;;;;1.10;1.00;;;24.10;22.30;;;;;;20736;6842;116344;-88
2022/05/30 11:26:58;;;;;;;1.10;1.00;;;23.90;23.80;;;;;;20727;6842;117615;-88
2022/05/30 11:29:50;;;;;;;1.10;1.00;;;23.60;24.50;;;;;;19847;6843;307841;-89
2022/05/30 11:32:22;;;;;;;0.95;0.95;;;23.60;24.40;;;;;;20521;6843;278572;-89
2022/05/30 11:35:14;;;;;;;1.03;1.00;;;23.70;24.40;;;;;;20719;6843;117333;-86
2022/05/30 11:37:40;;;;;;;1.20;1.10;;;23.60;24.30;;;;;;20538;6843;297298;-85
2022/05/30 11:40:35;;;;;;;1.20;1.10;;;23.70;22.80;;;;;;20511;6843;279034;-86
2022/05/30 11:43:02;;;;;;;1.23;1.10;;;23.70;23.80;;;;;;20537;6843;308530;-82
2022/05/30 11:45:40;;;;;;;1.37;1.10;;;23.70;23.50;;;;;;20520;6843;304429;-84
2022/05/30 11:48:06;;;;;;;2.53;1.20;;;23.70;23.10;;;;;;20756;6843;117262;-85
2022/05/30 11:50:34;;;;;;;1.20;1.07;;;23.50;24.50;;;;;;20713;6843;120104;-85
2022/05/30 11:53:13;;;;;;;0.80;0.80;;;23.30;24.10;;;;;;20539;6843;311047;-84
2022/05/30 11:55:48;;;;;;;1.35;1.10;;;23.30;24.10;;;;;;20517;6843;309028;-85
2022/05/30 11:58:14;;;;;;;1.20;1.10;;;23.80;23.30;;;;;;20482;6843;308491;-84
2022/05/30 12:00:52;;;;;;;0.80;0.80;;;23.70;23.20;;;;;;20719;6843;117340;-85
2022/05/30 12:03:29;;;;;;;1.08;1.00;;;23.80;24.20;;;;;;20541;6843;282327;-84
2022/05/30 12:06:23;;;;;;;1.57;1.03;;;23.80;24.20;;;;;;20710;6843;117137;-84
2022/05/30 12:09:02;;;;;;;1.05;1.00;;;23.80;25.10;;;;;;20611;6843;277820;-84
2022/05/30 12:11:34;;;;;;;1.90;1.00;;;23.80;23.40;;;;;;20596;6843;306209;-84
2022/05/30 12:14:26;;;;;;;0.93;0.93;;;24.00;24.00;;;;;;20694;6843;116934;-84
2022/05/30 12:16:59;;;;;;;1.97;1.00;;;23.90;24.80;;;;;;20842;6843;67375;-85
2022/05/30 12:25:06;;;;;;;1.23;1.13;;;23.80;24.70;;;;;;20834;6842;116830;-87
2022/05/30 12:27:32;;;;;;;0.95;0.90;;;23.70;25.90;;;;;;20128;6842;336844;-86
2022/05/30 12:30:01;;;;;;;1.40;1.30;;;23.80;24.00;;;;;;20540;6842;337303;-86
2022/05/30 12:32:32;;;;;;;1.30;1.20;;;23.90;23.50;;;;;;20506;6842;314906;-87
2022/05/30 12:35:00;;;;;;;1.13;1.03;;;24.00;23.20;;;;;;20739;6842;118396;-85
2022/05/30 12:37:41;;;;;;;1.30;1.20;;;23.80;24.80;;;;;;20529;6842;279655;-85
2022/05/30 12:40:26;;;;;;;1.03;0.80;;;23.80;23.50;;;;;;20749;6843;117210;-86
2022/05/30 12:43:15;;;;;;;1.10;1.00;;;23.60;24.70;;;;;;20578;6771;307376;-85
2022/05/30 12:45:56;;;;;;;1.10;1.10;;;23.60;23.00;;;;;;21007;6715;116918;-84
2022/05/30 12:48:35;;;;;;;1.70;1.40;;;23.50;24.50;;;;;;20963;6715;118368;-85
2022/05/30 12:51:37;;;;;;;1.10;1.00;;;23.20;25.30;;;;;;20652;6740;311877;-85
2022/05/30 12:54:16;;;;;;;0.93;0.93;;;23.20;23.30;;;;;;20937;6726;117103;-86
2022/05/30 12:56:54;;;;;;;1.00;1.00;;;23.00;24.50;;;;;;20666;6741;309539;-85
2022/05/30 12:59:33;;;;;;;0.90;0.90;;;23.00;23.50;;;;;;20672;6751;277240;-85
2022/05/30 13:02:08;;;;;;;1.33;1.07;;;23.20;24.30;;;;;;20596;6739;284471;-86
2022/05/30 13:04:41;;;;;;;1.03;0.93;;;23.30;23.00;;;;;;20676;6745;277552;-86
2022/05/30 13:07:29;;;;;;;;;;;;;;;;;;;;;
2022/05/30 13:09:56;;;;;;;1.10;0.90;;;23.30;22.40;;;;;;20296;6800;309007;-87